sensor_id;sensor_type;location;lat;lon;timestamp;temperature;humidity
15564;DHT22;7883;52.554;13.364;2023-08-30T16:50:38;19.80;99.90
15564;DHT22;7883;52.554;13.364;2023-08-30T16:53:06;19.80;99.90
15564;DHT22;7883;52.554;13.364;2023-08-30T16:55:34;19.80;99.90
15564;DHT22;7883;52.554;13.364;2023-08-30T16:58:01;19.80;99.90
15564;DHT22;7883;52.554;13.364;2023-08-30T17:00:28;19.80;99.90
15564;DHT22;7883;52.554;13.364;2023-08-30T17:02:57;19.90;99.90
15564;DHT22;7883;52.554;13.364;2023-08-30T17:05:24;19.90;99.90
15564;DHT22;7883;52.554;13.364;2023-08-30T17:07:53;19.90;99.90
15564;DHT22;7883;52.554;13.364;2023-08-30T17:10:22;19.90;99.90
15564;DHT22;7883;52.554;13.364;2023-08-30T17:12:51;19.90;99.90
15564;DHT22;7883;52.554;13.364;2023-08-30T17:15:22;19.90;99.90
15564;DHT22;7883;52.554;13.364;2023-08-30T17:17:49;19.90;99.90
15564;DHT22;7883;52.554;13.364;2023-08-30T17:20:19;19.90;99.90
15564;DHT22;7883;52.554;13.364;2023-08-30T17:22:47;19.90;99.90
15564;DHT22;7883;52.554;13.364;2023-08-30T17:25:16;19.80;99.90
15564;DHT22;7883;52.554;13.364;2023-08-30T17:27:43;19.80;99.90
15564;DHT22;7883;52.554;13.364;2023-08-30T17:30:14;19.80;99.90
15564;DHT22;7883;52.554;13.364;2023-08-30T17:32:47;19.70;99.90
15564;DHT22;7883;52.554;13.364;2023-08-30T17:35:14;19.70;99.90
15564;DHT22;7883;52.554;13.364;2023-08-30T17:37:42;19.60;99.90
15564;DHT22;7883;52.554;13.364;2023-08-30T17:40:10;19.60;99.90
15564;DHT22;7883;52.554;13.364;2023-08-30T17:42:38;19.60;99.90
15564;DHT22;7883;52.554;13.364;2023-08-30T17:45:06;19.60;99.90
15564;DHT22;7883;52.554;13.364;2023-08-30T17:47:33;19.50;99.90
15564;DHT22;7883;52.554;13.364;2023-08-30T17:50:03;19.50;99.90
15564;DHT22;7883;52.554;13.364;2023-08-30T17:52:30;19.50;99.90
15564;DHT22;7883;52.554;13.364;2023-08-30T17:54:57;19.40;99.90
15564;DHT22;7883;52.554;13.364;2023-08-30T17:57:25;19.40;99.90
15564;DHT22;7883;52.554;13.364;2023-08-30T17:59:58;19.40;99.90
15564;DHT22;7883;52.554;13.364;2023-08-30T18:02:25;19.40;99.90
15564;DHT22;7883;52.554;13.364;2023-08-30T18:04:52;19.30;99.90
15564;DHT22;7883;52.554;13.364;2023-08-30T18:07:21;19.30;99.90
15564;DHT22;7883;52.554;13.364;2023-08-30T18:09:49;19.20;99.90
15564;DHT22;7883;52.554;13.364;2023-08-30T18:12:17;19.20;99.90
15564;DHT22;7883;52.554;13.364;2023-08-30T18:14:44;19.10;99.90
15564;DHT22;7883;52.554;13.364;2023-08-30T18:17:14;19.10;99.90
15564;DHT22;7883;52.554;13.364;2023-08-30T18:19:42;19.00;99.90
15564;DHT22;7883;52.554;13.364;2023-08-30T18:22:09;18.90;99.90
15564;DHT22;7883;52.554;13.364;2023-08-30T18:24:36;18.90;99.90
15564;DHT22;7883;52.554;13.364;2023-08-30T18:27:03;18.90;99.90
15564;DHT22;7883;52.554;13.364;2023-08-30T18:29:31;18.90;99.90
15564;DHT22;7883;52.554;13.364;2023-08-30T18:31:58;18.80;99.90
15564;DHT22;7883;52.554;13.364;2023-08-30T18:34:27;18.80;99.90
15564;DHT22;7883;52.554;13.364;2023-08-30T18:36:54;18.80;99.90
15564;DHT22;7883;52.554;13.364;2023-08-30T18:39:22;18.90;99.90
15564;DHT22;7883;52.554;13.364;2023-08-30T18:41:49;18.90;99.90
15564;DHT22;7883;52.554;13.364;2023-08-30T18:44:19;18.80;99.90
15564;DHT22;7883;52.554;13.364;2023-08-30T18:46:46;18.60;99.90
15564;DHT22;7883;52.554;13.364;2023-08-30T18:49:13;18.60;99.90
15564;DHT22;7883;52.554;13.364;2023-08-30T18:51:42;18.70;99.90
15564;DHT22;7883;52.554;13.364;2023-08-30T18:54:09;18.70;99.90
15564;DHT22;7883;52.554;13.364;2023-08-30T18:56:37;18.60;99.90
15564;DHT22;7883;52.554;13.364;2023-08-30T18:59:04;18.60;99.90
15564;DHT22;7883;52.554;13.364;2023-08-30T19:01:31;18.60;99.90
15564;DHT22;7883;52.554;13.364;2023-08-30T19:03:59;18.60;99.90
15564;DHT22;7883;52.554;13.364;2023-08-30T19:06:26;18.60;99.90
15564;DHT22;7883;52.554;13.364;2023-08-30T19:08:55;18.50;99.90
15564;DHT22;7883;52.554;13.364;2023-08-30T19:11:22;18.50;99.90
15564;DHT22;7883;52.554;13.364;2023-08-30T19:13:50;18.50;99.90
15564;DHT22;7883;52.554;13.364;2023-08-30T19:16:21;18.50;99.90
15564;DHT22;7883;52.554;13.364;2023-08-30T19:18:48;18.50;99.90
15564;DHT22;7883;52.554;13.364;2023-08-30T19:21:15;18.40;99.90
15564;DHT22;7883;52.554;13.364;2023-08-30T19:23:45;18.40;99.90
15564;DHT22;7883;52.554;13.364;2023-08-30T19:26:14;18.40;99.90
15564;DHT22;7883;52.554;13.364;2023-08-30T19:28:43;18.40;99.90
15564;DHT22;7883;52.554;13.364;2023-08-30T19:31:10;18.40;99.90
15564;DHT22;7883;52.554;13.364;2023-08-30T19:33:37;18.40;99.90
15564;DHT22;7883;52.554;13.364;2023-08-30T19:36:04;18.40;99.90
15564;DHT22;7883;52.554;13.364;2023-08-30T19:38:31;18.40;99.90
15564;DHT22;7883;52.554;13.364;2023-08-30T19:41:01;18.40;99.90
15564;DHT22;7883;52.554;13.364;2023-08-30T19:43:30;18.40;99.90
15564;DHT22;7883;52.554;13.364;2023-08-30T19:46:01;18.40;99.90
15564;DHT22;7883;52.554;13.364;2023-08-30T19:48:28;18.40;99.90
15564;DHT22;7883;52.554;13.364;2023-08-30T19:50:55;18.40;99.90
15564;DHT22;7883;52.554;13.364;2023-08-30T19:53:25;18.40;99.90
15564;DHT22;7883;52.554;13.364;2023-08-30T19:55:53;18.40;99.90
15564;DHT22;7883;52.554;13.364;2023-08-30T19:58:21;18.40;99.90
15564;DHT22;7883;52.554;13.364;2023-08-30T20:00:50;18.50;99.90
15564;DHT22;7883;52.554;13.364;2023-08-30T20:03:17;18.50;99.90
15564;DHT22;7883;52.554;13.364;2023-08-30T20:05:49;18.50;99.90
15564;DHT22;7883;52.554;13.364;2023-08-30T20:08:20;18.40;99.90
15564;DHT22;7883;52.554;13.364;2023-08-30T20:10:47;18.50;99.90
15564;DHT22;7883;52.554;13.364;2023-08-30T20:13:14;18.50;99.90
15564;DHT22;7883;52.554;13.364;2023-08-30T20:15:41;18.40;99.90
15564;DHT22;7883;52.554;13.364;2023-08-30T20:18:10;18.40;99.90
15564;DHT22;7883;52.554;13.364;2023-08-30T20:20:39;18.40;99.90
15564;DHT22;7883;52.554;13.364;2023-08-30T20:23:08;18.40;99.90
15564;DHT22;7883;52.554;13.364;2023-08-30T20:25:36;18.40;99.90
15564;DHT22;7883;52.554;13.364;2023-08-30T20:28:04;18.40;99.90
15564;DHT22;7883;52.554;13.364;2023-08-30T20:30:31;18.50;99.90
15564;DHT22;7883;52.554;13.364;2023-08-30T20:32:58;18.50;99.90
15564;DHT22;7883;52.554;13.364;2023-08-30T20:35:26;18.40;99.90
15564;DHT22;7883;52.554;13.364;2023-08-30T20:37:54;18.40;99.90
15564;DHT22;7883;52.554;13.364;2023-08-30T20:40:21;18.40;99.90
15564;DHT22;7883;52.554;13.364;2023-08-30T20:42:48;18.40;99.90
15564;DHT22;7883;52.554;13.364;2023-08-30T20:45:15;18.40;99.90
15564;DHT22;7883;52.554;13.364;2023-08-30T20:47:42;18.30;99.90
15564;DHT22;7883;52.554;13.364;2023-08-30T20:50:10;18.40;99.90
15564;DHT22;7883;52.554;13.364;2023-08-30T20:52:38;18.40;99.90
15564;DHT22;7883;52.554;13.364;2023-08-30T20:55:05;18.40;99.90
15564;DHT22;7883;52.554;13.364;2023-08-30T20:57:33;18.40;99.90
15564;DHT22;7883;52.554;13.364;2023-08-30T21:00:02;18.40;99.90
15564;DHT22;7883;52.554;13.364;2023-08-30T21:02:31;18.40;99.90
15564;DHT22;7883;52.554;13.364;2023-08-30T21:04:59;18.40;99.90
15564;DHT22;7883;52.554;13.364;2023-08-30T21:07:27;18.40;99.90
15564;DHT22;7883;52.554;13.364;2023-08-30T21:09:55;18.40;99.90
15564;DHT22;7883;52.554;13.364;2023-08-30T21:12:22;18.40;99.90
15564;DHT22;7883;52.554;13.364;2023-08-30T21:14:49;18.30;99.90
15564;DHT22;7883;52.554;13.364;2023-08-30T21:17:16;18.30;99.90
15564;DHT22;7883;52.554;13.364;2023-08-30T21:19:42;18.30;99.90
15564;DHT22;7883;52.554;13.364;2023-08-30T21:22:09;18.30;99.90
15564;DHT22;7883;52.554;13.364;2023-08-30T21:24:38;18.20;99.90
15564;DHT22;7883;52.554;13.364;2023-08-30T21:27:07;18.20;99.90
15564;DHT22;7883;52.554;13.364;2023-08-30T21:29:34;18.10;99.90
15564;DHT22;7883;52.554;13.364;2023-08-30T21:32:01;18.10;99.90
15564;DHT22;7883;52.554;13.364;2023-08-30T21:34:29;18.10;99.90
15564;DHT22;7883;52.554;13.364;2023-08-30T21:36:56;18.10;99.90
15564;DHT22;7883;52.554;13.364;2023-08-30T21:39:23;18.10;99.90
15564;DHT22;7883;52.554;13.364;2023-08-30T21:41:50;18.10;99.90
15564;DHT22;7883;52.554;13.364;2023-08-30T21:44:21;18.00;99.90
15564;DHT22;7883;52.554;13.364;2023-08-30T21:46:48;18.00;99.90
15564;DHT22;7883;52.554;13.364;2023-08-30T21:49:15;18.00;99.90
15564;DHT22;7883;52.554;13.364;2023-08-30T21:51:41;18.00;99.90
15564;DHT22;7883;52.554;13.364;2023-08-30T21:54:10;17.90;99.90
15564;DHT22;7883;52.554;13.364;2023-08-30T21:56:36;17.80;99.90
15564;DHT22;7883;52.554;13.364;2023-08-30T21:59:03;17.80;99.90
15564;DHT22;7883;52.554;13.364;2023-08-30T22:01:32;17.80;99.90
15564;DHT22;7883;52.554;13.364;2023-08-30T22:03:59;17.70;99.90
15564;DHT22;7883;52.554;13.364;2023-08-30T22:06:28;17.70;99.90
15564;DHT22;7883;52.554;13.364;2023-08-30T22:08:56;17.70;99.90
15564;DHT22;7883;52.554;13.364;2023-08-30T22:11:24;17.70;99.90
15564;DHT22;7883;52.554;13.364;2023-08-30T22:18:50;17.70;99.90
15564;DHT22;7883;52.554;13.364;2023-08-30T22:21:17;17.70;99.90
15564;DHT22;7883;52.554;13.364;2023-08-30T22:23:44;17.70;99.90
15564;DHT22;7883;52.554;13.364;2023-08-30T22:26:11;17.70;99.90
15564;DHT22;7883;52.554;13.364;2023-08-30T22:28:38;17.80;99.90
15564;DHT22;7883;52.554;13.364;2023-08-30T22:31:04;17.80;99.90
15564;DHT22;7883;52.554;13.364;2023-08-30T22:33:31;17.80;99.90
15564;DHT22;7883;52.554;13.364;2023-08-30T22:36:03;17.80;99.90
15564;DHT22;7883;52.554;13.364;2023-08-30T22:38:31;17.70;99.90
15564;DHT22;7883;52.554;13.364;2023-08-30T22:40:58;17.80;99.90
15564;DHT22;7883;52.554;13.364;2023-08-30T22:43:26;17.80;99.90
15564;DHT22;7883;52.554;13.364;2023-08-30T22:45:53;17.80;99.90
15564;DHT22;7883;52.554;13.364;2023-08-30T22:48:20;17.80;99.90
15564;DHT22;7883;52.554;13.364;2023-08-30T22:50:47;17.80;99.90
15564;DHT22;7883;52.554;13.364;2023-08-30T22:53:15;17.90;99.90
15564;DHT22;7883;52.554;13.364;2023-08-30T22:55:42;17.90;99.90
15564;DHT22;7883;52.554;13.364;2023-08-30T22:58:10;17.90;99.90
15564;DHT22;7883;52.554;13.364;2023-08-30T23:00:37;17.90;99.90
15564;DHT22;7883;52.554;13.364;2023-08-30T23:03:05;18.00;99.90
15564;DHT22;7883;52.554;13.364;2023-08-30T23:05:31;18.00;99.90
15564;DHT22;7883;52.554;13.364;2023-08-30T23:08:00;18.00;99.90
15564;DHT22;7883;52.554;13.364;2023-08-30T23:10:30;18.00;99.90
15564;DHT22;7883;52.554;13.364;2023-08-30T23:12:58;18.00;99.90
15564;DHT22;7883;52.554;13.364;2023-08-30T23:15:25;18.00;99.90
15564;DHT22;7883;52.554;13.364;2023-08-30T23:17:52;18.00;99.90
15564;DHT22;7883;52.554;13.364;2023-08-30T23:20:20;18.00;99.90
15564;DHT22;7883;52.554;13.364;2023-08-30T23:22:47;17.90;99.90
15564;DHT22;7883;52.554;13.364;2023-08-30T23:25:16;17.90;99.90
15564;DHT22;7883;52.554;13.364;2023-08-30T23:27:44;17.90;99.90
15564;DHT22;7883;52.554;13.364;2023-08-30T23:30:12;17.90;99.90
15564;DHT22;7883;52.554;13.364;2023-08-30T23:32:39;17.90;99.90
15564;DHT22;7883;52.554;13.364;2023-08-30T23:35:08;17.80;99.90
15564;DHT22;7883;52.554;13.364;2023-08-30T23:37:36;17.80;99.90
15564;DHT22;7883;52.554;13.364;2023-08-30T23:40:04;17.80;99.90
15564;DHT22;7883;52.554;13.364;2023-08-30T23:42:35;17.80;99.90
15564;DHT22;7883;52.554;13.364;2023-08-30T23:45:05;17.80;99.90
15564;DHT22;7883;52.554;13.364;2023-08-30T23:47:32;17.80;99.90
15564;DHT22;7883;52.554;13.364;2023-08-30T23:49:59;17.70;99.90
15564;DHT22;7883;52.554;13.364;2023-08-30T23:52:26;17.80;99.90
15564;DHT22;7883;52.554;13.364;2023-08-30T23:54:54;17.80;99.90
15564;DHT22;7883;52.554;13.364;2023-08-30T23:57:21;17.80;99.90
15564;DHT22;7883;52.554;13.364;2023-08-30T23:59:48;17.80;99.90
